Time;durP1;ratioP1;P1;durP2;ratioP2;P2;SDS_P1;SDS_P2;PMS_P1;PMS_P2;Temp;Humidity;BMP_temperature;BMP_pressure;BME280_temperature;BME280_humidity;BME280_pressure;Samples;Min_cycle;Max_cycle;Signal;HPM_P1;HPM_P2
2023/06/22 00:01:52;;;;;;;94.40;3.20;;;26.10;43.00;;;;;;4974823;28;20441;-71
2023/06/22 00:04:18;;;;;;;91.77;3.27;;;26.20;42.10;;;;;;4973212;28;20416;-71
2023/06/22 00:06:43;;;;;;;90.60;2.43;;;26.20;43.50;;;;;;4974620;28;20174;-73
2023/06/22 00:09:10;;;;;;;91.67;2.67;;;26.10;41.90;;;;;;4974724;28;20166;-70
2023/06/22 00:11:36;;;;;;;91.27;2.70;;;26.00;42.50;;;;;;4974714;28;20197;-70
2023/06/22 00:14:02;;;;;;;90.63;2.43;;;26.40;41.30;;;;;;4974434;28;20414;-73
2023/06/22 00:16:28;;;;;;;91.10;2.77;;;26.70;39.30;;;;;;4974332;28;20414;-71
2023/06/22 00:18:54;;;;;;;91.77;2.40;;;26.40;41.70;;;;;;4974486;28;20410;-70
2023/06/22 00:21:22;;;;;;;91.80;2.90;;;26.50;40.60;;;;;;4974785;28;20202;-70
2023/06/22 00:23:47;;;;;;;94.47;3.63;;;26.60;40.00;;;;;;4974256;28;20206;-70
2023/06/22 00:26:13;;;;;;;91.40;2.63;;;26.40;40.80;;;;;;4974027;28;20424;-70
2023/06/22 00:28:39;;;;;;;92.10;2.77;;;26.30;42.10;;;;;;4974338;28;20261;-70
2023/06/22 00:31:05;;;;;;;92.30;2.87;;;26.30;41.80;;;;;;4974281;28;20433;-70
2023/06/22 00:33:31;;;;;;;92.67;3.00;;;26.20;42.80;;;;;;4974204;28;20182;-73
2023/06/22 00:35:56;;;;;;;91.37;2.57;;;26.20;41.90;;;;;;4973955;28;20171;-71
2023/06/22 00:38:22;;;;;;;90.70;2.30;;;26.20;42.20;;;;;;4974052;28;20413;-70
2023/06/22 00:40:48;;;;;;;96.80;2.53;;;26.20;41.80;;;;;;4974239;28;20246;-70
2023/06/22 00:43:13;;;;;;;91.47;2.40;;;26.10;43.00;;;;;;4974307;28;20201;-71
2023/06/22 00:45:39;;;;;;;91.47;2.43;;;26.00;43.50;;;;;;4974160;28;20181;-70
2023/06/22 00:48:05;;;;;;;91.70;2.53;;;25.80;43.70;;;;;;4974317;28;20209;-70
2023/06/22 00:50:33;;;;;;;91.53;2.40;;;25.90;42.50;;;;;;4973762;28;20189;-70
2023/06/22 00:53:07;;;;;;;92.00;2.57;;;26.00;42.60;;;;;;4973918;28;20413;-73
2023/06/22 00:55:51;;;;;;;91.90;2.50;;;26.00;42.90;;;;;;4973752;28;20488;-71
2023/06/22 00:58:21;;;;;;;92.07;2.73;;;25.80;44.10;;;;;;4973718;28;20900;-73
2023/06/22 01:00:47;;;;;;;94.73;2.97;;;25.90;44.20;;;;;;4973665;28;20433;-70
2023/06/22 01:03:13;;;;;;;92.50;2.50;;;25.80;44.50;;;;;;4973665;28;20457;-72
2023/06/22 01:05:40;;;;;;;91.87;2.43;;;25.60;44.90;;;;;;4973524;28;20770;-70
2023/06/22 01:08:33;;;;;;;91.90;2.37;;;25.30;45.00;;;;;;4973555;28;20547;-70
2023/06/22 01:11:07;;;;;;;92.27;2.50;;;24.80;47.60;;;;;;4973651;28;20445;-70
2023/06/22 01:13:54;;;;;;;92.77;2.90;;;25.20;46.20;;;;;;4973368;28;20413;-70
2023/06/22 01:16:29;;;;;;;92.40;2.53;;;25.30;46.80;;;;;;4973383;28;20445;-70
2023/06/22 01:19:00;;;;;;;92.37;2.40;;;25.40;46.70;;;;;;4973493;28;20413;-73
2023/06/22 01:21:30;;;;;;;92.80;2.77;;;25.50;45.00;;;;;;4973412;28;20447;-73
2023/06/22 01:24:05;;;;;;;92.67;2.53;;;25.40;45.80;;;;;;4973397;28;20511;-71
2023/06/22 01:26:34;;;;;;;93.37;2.70;;;24.50;47.80;;;;;;4973259;28;20941;-70
2023/06/22 01:29:01;;;;;;;92.80;2.40;;;24.00;50.80;;;;;;4973130;28;20437;-71
2023/06/22 01:31:29;;;;;;;92.50;2.50;;;24.30;50.20;;;;;;4973280;28;20449;-70
2023/06/22 01:34:04;;;;;;;93.47;2.40;;;24.70;49.20;;;;;;4973264;28;20432;-70
2023/06/22 01:36:32;;;;;;;92.47;2.40;;;24.90;47.40;;;;;;4972381;28;20535;-72
2023/06/22 01:38:58;;;;;;;92.60;2.63;;;24.90;47.70;;;;;;4971971;28;20429;-70
2023/06/22 01:41:29;;;;;;;92.80;2.50;;;25.10;46.30;;;;;;4973207;28;20816;-70
2023/06/22 01:43:56;;;;;;;92.60;2.70;;;25.20;46.40;;;;;;4973031;28;20469;-70
2023/06/22 01:46:22;;;;;;;92.43;2.30;;;25.10;46.30;;;;;;4972704;28;20419;-70
2023/06/22 01:48:48;;;;;;;93.20;3.03;;;25.10;47.00;;;;;;4973107;28;20427;-73
2023/06/22 01:51:14;;;;;;;93.47;2.73;;;25.10;46.60;;;;;;4972973;28;20990;-70
2023/06/22 01:53:40;;;;;;;93.07;2.70;;;24.90;46.60;;;;;;4973144;28;20794;-70
2023/06/22 01:56:05;;;;;;;93.57;3.10;;;24.90;47.80;;;;;;4972621;28;20188;-70
2023/06/22 01:58:32;;;;;;;93.30;2.63;;;24.90;47.20;;;;;;4973133;28;20273;-71
2023/06/22 02:01:09;;;;;;;93.13;2.57;;;24.90;47.20;;;;;;4973337;28;20249;-70
2023/06/22 02:03:59;;;;;;;92.57;2.27;;;24.80;46.80;;;;;;4973053;28;20471;-73
2023/06/22 02:06:34;;;;;;;94.77;3.57;;;24.60;47.60;;;;;;4972589;28;20516;-72
2023/06/22 02:09:05;;;;;;;93.20;2.77;;;24.60;47.90;;;;;;4972686;28;20401;-71
2023/06/22 02:11:33;;;;;;;93.43;2.83;;;24.60;47.60;;;;;;4972941;28;20483;-70
2023/06/22 02:13:59;;;;;;;92.57;2.23;;;24.60;47.80;;;;;;4972997;28;20785;-70
2023/06/22 02:16:29;;;;;;;93.00;2.40;;;24.50;49.00;;;;;;4972459;28;20494;-73
2023/06/22 02:19:01;;;;;;;92.50;2.13;;;24.50;48.80;;;;;;4972990;28;20415;-70
2023/06/22 02:21:27;;;;;;;92.60;2.40;;;24.40;49.10;;;;;;4972711;28;20985;-72
2023/06/22 02:23:52;;;;;;;92.93;2.57;;;24.00;49.40;;;;;;4972808;28;20562;-70
2023/06/22 02:26:18;;;;;;;93.87;2.97;;;23.70;52.40;;;;;;4972525;28;20185;-70
2023/06/22 02:28:44;;;;;;;94.07;2.87;;;23.40;53.70;;;;;;4972650;28;20259;-70
2023/06/22 02:31:10;;;;;;;93.13;2.30;;;23.40;55.40;;;;;;4972710;28;20200;-70
2023/06/22 02:33:35;;;;;;;93.30;2.40;;;23.70;53.50;;;;;;4972860;28;20482;-70
2023/06/22 02:36:04;;;;;;;93.90;3.07;;;24.10;50.70;;;;;;4972311;28;20212;-71
2023/06/22 02:38:34;;;;;;;93.20;2.60;;;24.10;50.00;;;;;;4972594;28;20176;-70
2023/06/22 02:41:00;;;;;;;94.93;2.50;;;24.40;49.80;;;;;;4972561;28;20434;-70
2023/06/22 02:43:26;;;;;;;95.43;2.97;;;24.50;49.30;;;;;;4972630;28;20459;-70
2023/06/22 02:45:51;;;;;;;94.00;2.90;;;24.40;48.80;;;;;;4972509;28;20419;-73
2023/06/22 02:48:17;;;;;;;93.47;2.50;;;24.30;48.90;;;;;;4973784;28;20185;-70
2023/06/22 02:50:42;;;;;;;93.20;2.27;;;24.20;49.20;;;;;;4976281;28;20718;-70
2023/06/22 02:53:08;;;;;;;93.77;2.67;;;24.30;49.60;;;;;;4976318;28;20184;-70
2023/06/22 02:55:33;;;;;;;93.20;2.40;;;24.20;49.90;;;;;;4975688;28;20555;-72
2023/06/22 02:57:59;;;;;;;94.00;2.70;;;24.20;49.40;;;;;;4976137;28;20187;-70
2023/06/22 03:00:30;;;;;;;93.87;2.57;;;24.10;49.30;;;;;;4976009;28;20174;-70
2023/06/22 03:02:57;;;;;;;94.07;2.93;;;24.10;49.80;;;;;;4976046;28;20209;-70
2023/06/22 03:05:22;;;;;;;93.67;2.50;;;24.10;50.20;;;;;;4975547;28;20422;-70
2023/06/22 03:07:48;;;;;;;93.90;2.63;;;24.00;49.90;;;;;;4975922;28;20424;-70
2023/06/22 03:10:15;;;;;;;93.83;2.77;;;24.00;50.00;;;;;;4975676;28;20411;-72
2023/06/22 03:12:42;;;;;;;93.90;2.50;;;24.00;50.50;;;;;;4975854;28;20700;-70
2023/06/22 03:15:09;;;;;;;95.67;3.10;;;24.00;50.30;;;;;;4975476;28;20415;-70
2023/06/22 03:17:37;;;;;;;93.47;2.50;;;24.00;50.30;;;;;;4975793;28;20447;-70
2023/06/22 03:20:09;;;;;;;95.60;2.60;;;24.00;49.90;;;;;;4975263;28;20469;-70
2023/06/22 03:22:35;;;;;;;95.73;2.93;;;24.10;50.00;;;;;;4975514;28;20442;-73
2023/06/22 03:25:01;;;;;;;93.97;2.53;;;24.00;50.00;;;;;;4975347;28;20414;-70
2023/06/22 03:27:27;;;;;;;93.80;2.37;;;24.00;50.20;;;;;;4975685;28;20421;-70
2023/06/22 03:29:53;;;;;;;93.53;2.27;;;23.90;49.60;;;;;;4975579;28;20182;-71
2023/06/22 03:32:18;;;;;;;93.97;2.40;;;23.80;50.40;;;;;;4975330;28;20216;-73
2023/06/22 03:34:46;;;;;;;94.20;2.63;;;23.80;50.40;;;;;;4975196;28;20657;-70
2023/06/22 03:37:15;;;;;;;94.80;2.97;;;23.90;50.60;;;;;;4975383;28;20182;-70
2023/06/22 03:39:41;;;;;;;94.90;3.17;;;23.80;50.40;;;;;;4975182;28;20462;-71
2023/06/22 03:42:08;;;;;;;94.30;2.50;;;23.90;50.10;;;;;;4975577;28;20445;-70
2023/06/22 03:44:36;;;;;;;94.10;2.70;;;24.00;50.20;;;;;;4975003;28;20473;-70
2023/06/22 03:47:02;;;;;;;94.07;2.60;;;24.00;50.10;;;;;;4975604;28;20446;-70
2023/06/22 03:49:27;;;;;;;93.97;2.43;;;24.00;50.50;;;;;;4973945;28;20426;-70
2023/06/22 03:51:53;;;;;;;93.87;2.40;;;24.00;50.30;;;;;;4997245;23;20494;-71
2023/06/22 03:54:18;;;;;;;94.20;2.60;;;24.00;50.20;;;;;;4975340;28;20292;-71
2023/06/22 03:56:44;;;;;;;95.30;2.87;;;23.90;50.00;;;;;;4974669;28;20178;-71
2023/06/22 03:59:09;;;;;;;94.60;2.73;;;23.80;50.00;;;;;;4974657;28;20540;-71
2023/06/22 04:01:36;;;;;;;95.87;2.70;;;23.90;49.80;;;;;;4974875;28;20222;-73
2023/06/22 04:04:02;;;;;;;94.97;2.80;;;23.90;50.40;;;;;;4974764;28;20210;-71
2023/06/22 04:06:27;;;;;;;95.40;2.80;;;23.90;49.70;;;;;;4972884;28;20761;-71
2023/06/22 04:08:53;;;;;;;93.90;2.30;;;23.90;50.70;;;;;;4975374;28;20198;-71
2023/06/22 04:11:19;;;;;;;95.60;3.00;;;24.00;50.40;;;;;;4970839;28;20272;-71
2023/06/22 04:13:44;;;;;;;94.67;2.97;;;24.10;49.50;;;;;;4974696;28;20186;-71
2023/06/22 04:16:10;;;;;;;95.23;3.00;;;24.20;49.00;;;;;;4974272;28;20235;-71
2023/06/22 04:18:36;;;;;;;94.10;2.43;;;24.20;49.20;;;;;;4956541;28;20183;-71
2023/06/22 04:21:02;;;;;;;94.07;2.33;;;24.20;49.20;;;;;;4971866;28;20759;-72
2023/06/22 04:23:28;;;;;;;94.60;2.90;;;24.10;49.60;;;;;;4972291;28;20199;-72
2023/06/22 04:25:56;;;;;;;94.20;2.43;;;24.10;49.80;;;;;;4972111;28;20422;-72
2023/06/22 04:28:22;;;;;;;94.20;2.53;;;24.20;49.30;;;;;;4971684;28;20780;-72
2023/06/22 04:30:47;;;;;;;94.23;2.40;;;24.20;49.90;;;;;;4971045;28;20477;-71
2023/06/22 04:33:17;;;;;;;96.93;2.67;;;24.30;49.30;;;;;;4973478;28;20567;-71
2023/06/22 04:35:45;;;;;;;94.50;2.67;;;24.40;49.00;;;;;;4973873;28;20187;-71
2023/06/22 04:38:13;;;;;;;94.43;2.60;;;24.40;48.70;;;;;;4974158;28;20479;-72
2023/06/22 04:40:39;;;;;;;94.60;2.67;;;24.10;48.60;;;;;;4974067;28;20420;-72
2023/06/22 04:43:06;;;;;;;96.67;3.30;;;24.20;49.30;;;;;;4973921;28;20472;-72
2023/06/22 04:45:37;;;;;;;94.80;2.80;;;24.30;49.30;;;;;;4973637;28;20437;-71
2023/06/22 04:48:03;;;;;;;94.07;2.40;;;24.40;49.00;;;;;;4973726;28;20420;-71
2023/06/22 04:50:29;;;;;;;94.43;2.67;;;24.50;48.20;;;;;;4974176;28;20408;-72
2023/06/22 04:52:54;;;;;;;94.33;2.27;;;24.40;47.70;;;;;;4973774;28;20590;-72
2023/06/22 04:55:20;;;;;;;94.60;2.60;;;24.00;49.20;;;;;;4973602;28;20172;-71
2023/06/22 04:57:49;;;;;;;94.97;2.80;;;24.20;48.90;;;;;;4973625;28;20629;-71
2023/06/22 05:00:17;;;;;;;95.20;2.50;;;24.10;48.80;;;;;;4973780;28;20259;-72
2023/06/22 05:02:45;;;;;;;94.50;3.00;;;23.60;50.80;;;;;;4972497;28;20429;-72
2023/06/22 05:05:13;;;;;;;96.47;2.93;;;23.90;49.70;;;;;;4973724;28;20418;-71
2023/06/22 05:07:43;;;;;;;96.00;3.10;;;24.10;49.50;;;;;;4973748;28;20404;-72
2023/06/22 05:10:11;;;;;;;94.50;2.50;;;23.90;49.80;;;;;;4973419;28;20813;-71
2023/06/22 05:12:37;;;;;;;94.57;2.23;;;24.10;50.60;;;;;;4973110;28;20491;-72
2023/06/22 05:15:03;;;;;;;94.60;2.90;;;24.20;49.90;;;;;;4973248;28;20413;-73
2023/06/22 05:17:28;;;;;;;94.27;2.57;;;24.20;50.80;;;;;;4973503;28;20501;-71
2023/06/22 05:19:54;;;;;;;97.87;3.63;;;24.70;49.10;;;;;;4973736;28;20587;-71
2023/06/22 05:22:20;;;;;;;94.73;2.70;;;24.60;47.80;;;;;;4973262;28;20600;-71
2023/06/22 05:24:46;;;;;;;94.70;3.00;;;24.30;49.00;;;;;;4973045;28;20461;-72
2023/06/22 05:27:12;;;;;;;94.67;2.70;;;24.00;50.60;;;;;;4973396;28;20609;-71
2023/06/22 05:29:38;;;;;;;93.97;2.30;;;24.10;49.80;;;;;;4972834;28;20444;-72
2023/06/22 05:32:04;;;;;;;98.00;3.23;;;23.90;51.70;;;;;;4973500;28;20675;-72
2023/06/22 05:34:29;;;;;;;95.30;2.90;;;23.80;52.00;;;;;;4973432;28;20198;-72
2023/06/22 05:36:55;;;;;;;94.70;2.80;;;23.90;51.80;;;;;;4973219;28;20428;-71
2023/06/22 05:39:21;;;;;;;95.10;2.90;;;24.10;51.90;;;;;;4955935;28;20204;-71
2023/06/22 05:41:47;;;;;;;94.40;2.57;;;23.90;51.30;;;;;;4973132;28;20793;-71
2023/06/22 05:44:12;;;;;;;94.40;2.70;;;24.20;50.90;;;;;;4973321;28;20209;-72
2023/06/22 05:46:47;;;;;;;94.97;3.33;;;24.70;47.70;;;;;;4972898;28;20572;-71
2023/06/22 05:49:13;;;;;;;94.20;2.60;;;24.60;48.50;;;;;;4973242;28;20177;-71
2023/06/22 05:51:39;;;;;;;93.97;2.50;;;24.40;48.60;;;;;;4972979;28;20453;-71
2023/06/22 05:54:05;;;;;;;98.00;3.00;;;24.50;49.10;;;;;;4972978;28;20547;-71
2023/06/22 05:56:31;;;;;;;94.57;2.70;;;25.10;48.10;;;;;;4972824;28;20423;-71
2023/06/22 05:58:56;;;;;;;94.07;2.60;;;24.90;47.20;;;;;;4972691;28;20190;-72
2023/06/22 06:01:22;;;;;;;94.50;3.00;;;24.70;47.40;;;;;;4973066;28;20201;-73
2023/06/22 06:03:49;;;;;;;94.40;2.67;;;25.10;47.00;;;;;;4972948;28;20205;-72
2023/06/22 06:06:15;;;;;;;95.07;2.80;;;25.40;45.90;;;;;;4973337;28;20232;-71
2023/06/22 06:08:41;;;;;;;95.93;3.07;;;25.60;46.00;;;;;;4972726;28;20409;-71
2023/06/22 06:11:06;;;;;;;93.70;2.30;;;25.70;45.00;;;;;;4973026;28;20205;-71
2023/06/22 06:13:32;;;;;;;95.20;3.20;;;25.90;44.80;;;;;;4972818;28;20472;-71
2023/06/22 06:15:59;;;;;;;96.67;3.20;;;26.00;44.30;;;;;;4972572;28;20218;-71
2023/06/22 06:18:24;;;;;;;94.47;2.70;;;26.00;43.90;;;;;;4972774;28;20167;-71
2023/06/22 06:20:50;;;;;;;95.13;2.67;;;26.00;43.50;;;;;;4972896;28;20414;-71
2023/06/22 06:23:16;;;;;;;93.90;2.57;;;26.10;42.30;;;;;;4975774;28;20210;-71
2023/06/22 06:25:41;;;;;;;95.17;3.53;;;26.10;44.00;;;;;;4976514;28;20174;-71
2023/06/22 06:28:07;;;;;;;94.80;3.37;;;25.80;43.20;;;;;;4976323;28;20194;-71
2023/06/22 06:30:32;;;;;;;94.97;2.90;;;25.70;44.00;;;;;;4976538;28;20174;-72
2023/06/22 06:32:58;;;;;;;97.07;3.03;;;25.50;44.90;;;;;;4976567;28;20190;-71
2023/06/22 06:35:24;;;;;;;94.37;2.87;;;25.50;45.10;;;;;;4976243;28;20175;-71
2023/06/22 06:37:50;;;;;;;94.10;2.97;;;25.40;44.90;;;;;;4976329;28;20201;-71
2023/06/22 06:40:17;;;;;;;95.50;3.27;;;25.20;45.90;;;;;;4976520;28;20257;-71
2023/06/22 06:42:45;;;;;;;95.57;2.97;;;25.30;45.30;;;;;;4976162;28;20974;-72
2023/06/22 06:45:12;;;;;;;93.87;2.93;;;25.80;43.90;;;;;;4976040;28;20914;-71
2023/06/22 06:47:38;;;;;;;94.10;3.03;;;26.30;42.90;;;;;;4976375;28;20413;-71
2023/06/22 06:50:05;;;;;;;94.17;2.90;;;26.10;42.80;;;;;;4976106;28;20412;-70
2023/06/22 06:52:31;;;;;;;93.87;2.60;;;25.70;43.70;;;;;;4975924;28;20445;-71
2023/06/22 06:54:56;;;;;;;94.07;2.67;;;26.10;43.50;;;;;;4975708;28;20424;-71
2023/06/22 06:57:22;;;;;;;93.20;2.60;;;26.20;42.60;;;;;;4976402;28;20644;-71
2023/06/22 06:59:49;;;;;;;93.37;3.10;;;26.00;42.60;;;;;;4975726;28;20170;-71
2023/06/22 07:02:15;;;;;;;93.40;2.80;;;26.50;41.90;;;;;;4976468;28;20544;-71
2023/06/22 07:04:41;;;;;;;92.97;2.73;;;26.40;41.00;;;;;;4975640;28;20982;-71
2023/06/22 07:07:07;;;;;;;98.07;3.63;;;25.80;42.30;;;;;;4976105;28;20413;-71
2023/06/22 07:09:32;;;;;;;97.17;3.20;;;25.80;43.00;;;;;;4975870;28;20174;-71
2023/06/22 07:11:58;;;;;;;93.47;2.83;;;25.60;43.00;;;;;;4958604;28;20230;-71
2023/06/22 07:14:24;;;;;;;92.37;2.50;;;25.80;42.40;;;;;;4975649;28;20174;-72
2023/06/22 07:16:49;;;;;;;92.77;2.67;;;25.80;43.10;;;;;;4975653;28;20181;-71
2023/06/22 07:19:15;;;;;;;92.17;2.30;;;26.40;40.70;;;;;;4975632;28;20179;-71
2023/06/22 07:21:40;;;;;;;93.27;2.67;;;26.50;41.30;;;;;;4975555;28;20195;-71
2023/06/22 07:24:07;;;;;;;92.67;2.60;;;27.10;40.00;;;;;;4975530;28;20202;-71
2023/06/22 07:26:33;;;;;;;94.23;3.57;;;27.40;39.00;;;;;;4975387;28;20205;-71
2023/06/22 07:28:58;;;;;;;92.20;2.47;;;27.40;37.20;;;;;;4975140;28;20409;-71
2023/06/22 07:31:25;;;;;;;92.67;2.87;;;27.00;39.10;;;;;;4975425;28;20438;-71
2023/06/22 07:33:51;;;;;;;93.20;2.90;;;26.60;39.00;;;;;;4974615;28;20540;-71
2023/06/22 07:36:17;;;;;;;95.00;2.93;;;26.90;39.20;;;;;;4975061;28;20414;-71
2023/06/22 07:38:43;;;;;;;93.20;2.90;;;27.10;39.40;;;;;;4975796;28;20631;-71
2023/06/22 07:41:08;;;;;;;92.80;2.97;;;27.20;39.50;;;;;;4975292;28;20456;-72
2023/06/22 07:43:36;;;;;;;95.20;2.90;;;27.30;39.10;;;;;;4975210;28;20206;-71
2023/06/22 07:46:03;;;;;;;92.10;2.60;;;27.80;38.10;;;;;;4974973;28;20166;-71
2023/06/22 07:48:29;;;;;;;92.57;2.60;;;27.90;37.90;;;;;;4975283;28;20417;-72
2023/06/22 07:50:55;;;;;;;92.77;2.60;;;28.10;36.60;;;;;;4974895;28;20414;-72
2023/06/22 07:53:21;;;;;;;91.90;2.43;;;28.40;36.90;;;;;;4975144;28;20504;-71
2023/06/22 07:55:47;;;;;;;92.17;2.90;;;28.60;36.20;;;;;;4974674;28;20632;-72
2023/06/22 07:58:12;;;;;;;93.80;2.67;;;28.50;35.10;;;;;;4974732;28;20413;-71
2023/06/22 08:00:38;;;;;;;93.77;2.80;;;28.30;36.40;;;;;;4974833;28;20625;-71
2023/06/22 08:03:05;;;;;;;91.77;2.50;;;28.20;36.30;;;;;;4974925;28;20210;-71
2023/06/22 08:05:31;;;;;;;92.77;2.53;;;28.40;34.90;;;;;;4974367;28;20170;-71
2023/06/22 08:07:56;;;;;;;91.10;2.17;;;28.20;36.00;;;;;;4974922;28;20420;-71
2023/06/22 08:10:22;;;;;;;91.63;2.57;;;28.50;36.60;;;;;;4974700;28;20421;-71
2023/06/22 08:12:47;;;;;;;91.00;2.47;;;28.30;35.10;;;;;;4974707;28;20194;-71
2023/06/22 08:15:13;;;;;;;91.67;3.17;;;28.00;36.50;;;;;;4974412;28;20278;-71
2023/06/22 08:17:39;;;;;;;91.17;2.57;;;28.10;36.90;;;;;;4974739;28;20206;-71
2023/06/22 08:20:09;;;;;;;91.10;2.50;;;27.80;37.10;;;;;;4974397;28;20175;-71
2023/06/22 08:22:36;;;;;;;91.10;2.70;;;27.40;37.30;;;;;;4974600;28;20187;-72
2023/06/22 08:25:03;;;;;;;91.37;2.87;;;27.00;39.60;;;;;;4974455;28;20561;-71
2023/06/22 08:27:31;;;;;;;91.17;2.70;;;26.70;40.40;;;;;;4974482;28;20500;-71
2023/06/22 08:29:58;;;;;;;93.17;2.83;;;26.70;41.00;;;;;;4974273;28;20903;-71
2023/06/22 08:32:26;;;;;;;91.17;2.70;;;27.10;39.80;;;;;;4974296;28;20436;-70
2023/06/22 08:34:52;;;;;;;91.20;2.83;;;27.10;39.40;;;;;;4974490;28;20419;-71
2023/06/22 08:37:18;;;;;;;91.23;2.90;;;26.80;39.60;;;;;;4974470;28;20425;-71
2023/06/22 08:39:44;;;;;;;90.07;2.50;;;26.90;40.00;;;;;;4975006;28;20500;-71
2023/06/22 08:42:09;;;;;;;90.97;2.50;;;27.00;39.40;;;;;;4974274;28;20440;-71
2023/06/22 08:44:35;;;;;;;90.43;2.43;;;27.40;39.90;;;;;;4974135;28;20248;-71
2023/06/22 08:47:00;;;;;;;90.57;2.60;;;27.90;38.40;;;;;;4974113;28;20182;-70
2023/06/22 08:49:26;;;;;;;90.50;2.70;;;27.40;38.60;;;;;;4974451;28;20178;-71
2023/06/22 08:51:53;;;;;;;90.23;2.60;;;27.80;39.60;;;;;;4973772;28;20242;-71
2023/06/22 08:54:19;;;;;;;90.37;2.50;;;28.20;37.50;;;;;;4974172;28;20267;-71
2023/06/22 08:56:44;;;;;;;89.47;2.47;;;27.60;38.50;;;;;;4973538;28;20427;-72
2023/06/22 08:59:10;;;;;;;90.23;2.90;;;27.80;38.30;;;;;;4956301;28;20633;-72
2023/06/22 09:01:36;;;;;;;89.70;2.40;;;28.20;37.20;;;;;;4973471;28;20206;-71
2023/06/22 09:04:01;;;;;;;89.30;2.37;;;28.40;36.40;;;;;;4973782;28;20209;-72
2023/06/22 09:06:27;;;;;;;89.17;2.40;;;28.10;37.50;;;;;;4973441;28;20592;-71
2023/06/22 09:08:52;;;;;;;89.10;2.27;;;28.10;37.40;;;;;;4973914;28;20174;-71
2023/06/22 09:11:18;;;;;;;91.77;2.73;;;28.80;36.70;;;;;;4973475;28;20175;-71
2023/06/22 09:13:44;;;;;;;89.87;2.73;;;29.50;35.20;;;;;;4973736;28;20182;-71
2023/06/22 09:16:10;;;;;;;89.97;2.70;;;29.40;34.80;;;;;;4973187;28;20201;-71
2023/06/22 09:18:36;;;;;;;89.57;2.60;;;29.30;34.10;;;;;;4973878;28;20504;-71
2023/06/22 09:21:02;;;;;;;89.37;2.47;;;29.10;34.90;;;;;;4973484;28;20174;-71
2023/06/22 09:23:27;;;;;;;89.27;2.57;;;28.40;37.50;;;;;;4956446;28;20476;-72
2023/06/22 09:25:53;;;;;;;90.40;2.90;;;28.50;37.10;;;;;;4975262;28;20445;-72
2023/06/22 09:28:18;;;;;;;90.10;2.60;;;29.10;35.60;;;;;;4974219;28;20265;-74
2023/06/22 09:30:44;;;;;;;89.43;2.53;;;28.60;36.30;;;;;;4974544;28;20640;-72
2023/06/22 09:33:10;;;;;;;89.77;2.70;;;28.70;36.80;;;;;;4975709;28;20662;-73
2023/06/22 09:35:35;;;;;;;88.90;2.53;;;29.20;36.70;;;;;;4976026;28;20417;-73
2023/06/22 09:38:01;;;;;;;89.83;3.10;;;30.00;33.90;;;;;;4975993;28;20182;-71
2023/06/22 09:40:27;;;;;;;89.57;2.60;;;30.10;33.00;;;;;;4958925;28;20205;-73
2023/06/22 09:42:52;;;;;;;88.97;2.50;;;30.00;33.90;;;;;;4975742;28;20209;-73
2023/06/22 09:45:18;;;;;;;89.20;2.50;;;30.70;32.30;;;;;;4976260;28;20202;-73
2023/06/22 09:47:43;;;;;;;88.87;2.40;;;31.20;30.60;;;;;;4976357;28;20658;-72
2023/06/22 09:50:09;;;;;;;92.00;2.97;;;31.30;31.10;;;;;;4976619;28;20198;-73
2023/06/22 09:52:35;;;;;;;90.17;3.20;;;31.60;29.60;;;;;;4997715;23;20217;-77
2023/06/22 09:55:01;;;;;;;88.50;2.40;;;31.70;30.50;;;;;;4972431;28;20409;-76
2023/06/22 09:57:26;;;;;;;88.80;2.33;;;31.80;29.00;;;;;;4972268;28;20268;-76
2023/06/22 09:59:52;;;;;;;91.80;2.80;;;31.70;30.20;;;;;;4972624;28;20190;-76
2023/06/22 10:02:17;;;;;;;88.50;2.50;;;31.90;29.40;;;;;;4972666;28;20171;-76
2023/06/22 10:04:43;;;;;;;88.90;2.40;;;32.10;30.10;;;;;;4969364;28;20206;-76
2023/06/22 10:07:08;;;;;;;88.47;2.47;;;32.40;29.60;;;;;;4953368;28;20229;-76
2023/06/22 10:09:34;;;;;;;88.70;2.60;;;32.00;28.50;;;;;;4972509;28;20205;-76
2023/06/22 10:11:59;;;;;;;92.20;2.67;;;31.30;29.30;;;;;;4955219;28;20261;-74
2023/06/22 10:14:27;;;;;;;88.23;2.23;;;30.30;31.50;;;;;;4972507;28;20801;-74
2023/06/22 10:16:53;;;;;;;88.50;2.30;;;30.30;31.30;;;;;;4972346;28;20182;-74
2023/06/22 10:19:18;;;;;;;87.73;2.37;;;30.70;30.00;;;;;;4972570;28;20410;-74
2023/06/22 10:21:44;;;;;;;88.20;2.40;;;30.50;30.60;;;;;;4972239;28;20416;-77
2023/06/22 10:24:09;;;;;;;87.57;2.33;;;30.60;31.20;;;;;;4972200;28;20302;-76
2023/06/22 10:26:36;;;;;;;87.40;2.17;;;31.30;30.30;;;;;;4972290;28;20217;-75
2023/06/22 10:29:03;;;;;;;87.47;2.33;;;31.30;28.70;;;;;;4972316;28;20171;-74
2023/06/22 10:31:29;;;;;;;89.30;3.13;;;30.90;30.10;;;;;;4972152;28;20406;-74
2023/06/22 10:33:55;;;;;;;88.97;2.27;;;31.30;29.60;;;;;;4972107;28;20430;-75
2023/06/22 10:36:21;;;;;;;94.63;2.37;;;32.00;28.60;;;;;;4972223;28;20410;-75
2023/06/22 10:38:47;;;;;;;87.77;2.40;;;32.00;28.00;;;;;;4971908;28;20418;-74
2023/06/22 10:41:13;;;;;;;88.70;2.93;;;32.60;29.50;;;;;;4972437;28;21082;-74
2023/06/22 10:43:39;;;;;;;87.17;2.17;;;32.60;27.70;;;;;;4971923;28;20468;-74
2023/06/22 10:46:05;;;;;;;88.27;2.57;;;32.60;26.90;;;;;;4972066;28;20500;-75
2023/06/22 10:48:30;;;;;;;87.00;2.20;;;32.60;28.20;;;;;;4972091;28;20179;-74
2023/06/22 10:50:56;;;;;;;92.30;2.67;;;32.70;27.00;;;;;;4972091;28;20210;-74
2023/06/22 10:53:21;;;;;;;87.13;2.30;;;32.80;27.60;;;;;;4972027;28;20229;-75
2023/06/22 10:55:47;;;;;;;86.77;2.20;;;33.10;26.50;;;;;;4972124;28;20663;-75
2023/06/22 10:58:13;;;;;;;86.87;2.20;;;33.60;27.10;;;;;;4972131;28;20772;-76
2023/06/22 11:00:38;;;;;;;93.90;3.03;;;34.00;26.00;;;;;;4972265;28;20197;-75
2023/06/22 11:03:04;;;;;;;88.93;2.57;;;34.10;27.10;;;;;;4971891;28;20624;-75
2023/06/22 11:05:30;;;;;;;90.90;3.00;;;33.60;26.50;;;;;;4971966;28;20171;-75
2023/06/22 11:07:55;;;;;;;87.27;2.50;;;34.10;26.00;;;;;;4972111;28;20179;-75
2023/06/22 11:10:21;;;;;;;86.60;2.60;;;34.20;24.30;;;;;;4975369;28;20170;-75
2023/06/22 11:12:46;;;;;;;87.07;2.60;;;33.70;25.50;;;;;;4975595;28;20194;-75
2023/06/22 11:15:12;;;;;;;88.00;2.80;;;34.10;26.60;;;;;;4975086;28;20248;-75
2023/06/22 11:17:38;;;;;;;87.40;2.67;;;34.20;24.80;;;;;;4975572;28;20247;-75
2023/06/22 11:20:10;;;;;;;86.30;2.40;;;34.30;23.70;;;;;;4975310;28;20166;-75
2023/06/22 11:22:37;;;;;;;86.27;2.20;;;34.30;23.90;;;;;;4974994;28;20201;-75
2023/06/22 11:25:03;;;;;;;86.07;2.27;;;34.60;23.90;;;;;;4974845;28;20485;-75
2023/06/22 11:27:29;;;;;;;85.97;2.30;;;34.80;23.70;;;;;;4975203;28;20509;-75
2023/06/22 11:29:54;;;;;;;87.07;2.67;;;34.90;23.10;;;;;;4975147;28;20229;-75
2023/06/22 11:32:20;;;;;;;86.30;2.40;;;34.60;23.50;;;;;;4975262;28;20896;-76
2023/06/22 11:34:46;;;;;;;85.63;2.20;;;34.60;23.50;;;;;;4974650;28;20189;-77
2023/06/22 11:37:11;;;;;;;87.00;2.40;;;34.50;25.40;;;;;;4975037;28;20174;-75
2023/06/22 11:39:37;;;;;;;87.50;2.50;;;34.60;25.30;;;;;;4976672;28;20583;-75
2023/06/22 11:42:02;;;;;;;86.67;2.30;;;34.30;24.60;;;;;;4975044;28;20179;-75
2023/06/22 11:44:28;;;;;;;86.70;2.60;;;34.20;24.80;;;;;;4957251;28;20238;-77
2023/06/22 11:46:53;;;;;;;86.57;2.67;;;34.20;24.80;;;;;;4957828;28;20178;-75
2023/06/22 11:49:19;;;;;;;86.27;2.30;;;33.90;24.30;;;;;;4974803;28;20632;-75
2023/06/22 11:51:44;;;;;;;85.90;2.23;;;34.10;26.10;;;;;;4974914;28;20205;-75
2023/06/22 11:54:10;;;;;;;85.87;2.00;;;34.40;25.30;;;;;;4956917;28;20214;-76
2023/06/22 11:56:36;;;;;;;87.10;2.57;;;34.80;23.90;;;;;;4974594;28;20182;-75
2023/06/22 11:59:01;;;;;;;87.77;2.30;;;34.60;23.20;;;;;;4974627;28;20642;-75
2023/06/22 12:01:27;;;;;;;85.97;2.10;;;33.60;24.90;;;;;;4974711;28;20217;-75
2023/06/22 12:03:52;;;;;;;87.20;2.77;;;33.60;25.50;;;;;;4974459;28;20194;-76
2023/06/22 12:06:18;;;;;;;88.80;2.87;;;33.20;26.50;;;;;;4974266;28;20174;-75
2023/06/22 12:08:43;;;;;;;85.57;2.07;;;33.00;26.90;;;;;;4974682;28;20171;-75
2023/06/22 12:11:09;;;;;;;85.90;2.30;;;32.80;27.50;;;;;;4974443;28;20216;-75
2023/06/22 12:13:34;;;;;;;85.77;2.10;;;32.80;27.00;;;;;;4974542;28;20194;-75
2023/06/22 12:16:00;;;;;;;86.73;2.50;;;32.40;27.60;;;;;;4974055;28;20636;-75
2023/06/22 12:18:25;;;;;;;86.47;2.67;;;32.80;27.90;;;;;;4974580;28;20182;-75
2023/06/22 12:20:51;;;;;;;86.17;2.40;;;32.50;28.00;;;;;;4973973;28;20325;-75
2023/06/22 12:23:17;;;;;;;90.90;2.50;;;32.10;28.50;;;;;;4974260;28;20241;-75
2023/06/22 12:25:44;;;;;;;86.10;2.50;;;31.90;28.40;;;;;;4973706;28;20178;-75
2023/06/22 12:28:09;;;;;;;85.47;2.13;;;31.50;29.70;;;;;;4974423;28;20178;-75
2023/06/22 12:30:35;;;;;;;91.23;2.47;;;31.30;30.20;;;;;;4974119;28;20476;-77
2023/06/22 12:33:01;;;;;;;86.07;2.40;;;31.50;30.00;;;;;;4974245;28;20195;-75